Portada
METAR-TAF:

METAR-TAF

Aeroports :

Bariloche, Argentina

latitud: 41-09S, longitud: 071-10W, altitud: 845 m

Observació

L'informe es va fer fa 47 minuts, a les 07:00 UTC
Vent 4 kt del Sud
Temperatura 11°C
Humitat 54%
Pressió 1013 hPa
Visibilitat 10 km o més
sense núvols per sota de 1500 mi sense presència de cumulonimbus.

METAR: SAZS 230700Z 18004KT CAVOK 11/02 Q1013

Hora: 04:47 (07:47 UTC)

Pronòstic

L'informe es va fer fa 2 hores i 47 minuts, a les 05:00 UTC
Pronòstic vàlid del 23 a les 06 UTC al 24 a les 06 UTC
Vent 5 kt del Sud/Sud-Oest
Visibilitat 10 km o més
sense núvols per sota de 1500 mi sense presència de cumulonimbus.
Evolucionant progressivament
l' 23 a les 12 UTC al 23 a les 15 UTC
Vent 20 kt del Oest/Nord-Oest
Evolucionant progressivament
l' 24 a les 00 UTC al 24 a les 02 UTC
Vent 10 kt del Oest

TAF: SAZS 230500Z 2306/2406 20005KT CAVOK TX31/2219Z TN10/2310Z BECMG 2312/2315 29020KT BECMG 2400/2402 27010KT

Observacions i pronòstics meteorològics de més de 4000 aeroports (METAR i TAF).

Les estacions disponibles són els punts grocs i vermells al mapa.

Posi el ratolí al punt desitjat per veure el nom de l'estació.

Feu clic per veure les observacions i els pronòstics meteorològics.

Per canviar el mapa: feu clic els botons verds amb una creu de color negre per apropar; al botó verd amb un guió per allunyar la imatge; o en les fletxes verdes per a mapes adjacents.


METAR-TAF: